sensor_id;sensor_type;location;lat;lon;timestamp;pressure;altitude;pressure_sealevel;temperature;humidity
52249;BME280;38541;48.130;8.378;2022-12-13T00:00:55;91795.06;;;-13.99;64.07
52249;BME280;38541;48.130;8.378;2022-12-13T00:03:22;91798.78;;;-14.03;63.42
52249;BME280;38541;48.130;8.378;2022-12-13T00:05:48;91800.94;;;-14.09;63.37
52249;BME280;38541;48.130;8.378;2022-12-13T00:08:15;91800.28;;;-14.11;63.39
52249;BME280;38541;48.130;8.378;2022-12-13T00:10:42;91797.34;;;-14.16;63.40
52249;BME280;38541;48.130;8.378;2022-12-13T00:13:08;91791.00;;;-14.20;63.61
52249;BME280;38541;48.130;8.378;2022-12-13T00:15:34;91787.81;;;-14.22;64.04
52249;BME280;38541;48.130;8.378;2022-12-13T00:18:01;91786.09;;;-14.22;64.02
52249;BME280;38541;48.130;8.378;2022-12-13T00:20:27;91786.63;;;-14.18;64.12
52249;BME280;38541;48.130;8.378;2022-12-13T00:22:54;91786.22;;;-14.13;64.32
52249;BME280;38541;48.130;8.378;2022-12-13T00:25:21;91779.03;;;-14.18;64.14
52249;BME280;38541;48.130;8.378;2022-12-13T00:27:47;91775.88;;;-14.20;64.31
52249;BME280;38541;48.130;8.378;2022-12-13T00:30:14;91767.53;;;-14.21;63.89
52249;BME280;38541;48.130;8.378;2022-12-13T00:32:40;91766.06;;;-14.23;63.94
52249;BME280;38541;48.130;8.378;2022-12-13T00:35:07;91761.53;;;-14.20;63.76
52249;BME280;38541;48.130;8.378;2022-12-13T00:37:33;91761.28;;;-14.26;63.77
52249;BME280;38541;48.130;8.378;2022-12-13T00:40:00;91764.34;;;-14.32;63.60
52249;BME280;38541;48.130;8.378;2022-12-13T00:42:26;91765.56;;;-14.37;63.35
52249;BME280;38541;48.130;8.378;2022-12-13T00:44:53;91765.16;;;-14.32;63.86
52249;BME280;38541;48.130;8.378;2022-12-13T00:47:19;91760.09;;;-14.32;63.64
52249;BME280;38541;48.130;8.378;2022-12-13T00:49:47;91762.75;;;-14.34;63.69
52249;BME280;38541;48.130;8.378;2022-12-13T00:52:14;91750.94;;;-14.33;63.99
52249;BME280;38541;48.130;8.378;2022-12-13T00:54:40;91752.53;;;-14.32;64.18
52249;BME280;38541;48.130;8.378;2022-12-13T00:57:07;91757.47;;;-14.30;64.17
52249;BME280;38541;48.130;8.378;2022-12-13T00:59:33;91745.09;;;-14.34;64.59
52249;BME280;38541;48.130;8.378;2022-12-13T01:01:59;91740.06;;;-14.34;64.52
52249;BME280;38541;48.130;8.378;2022-12-13T01:04:26;91737.97;;;-14.38;64.65
52249;BME280;38541;48.130;8.378;2022-12-13T01:06:52;91743.50;;;-14.35;64.93
52249;BME280;38541;48.130;8.378;2022-12-13T01:09:22;91741.16;;;-14.36;64.46
52249;BME280;38541;48.130;8.378;2022-12-13T01:11:56;91736.63;;;-14.42;64.13
52249;BME280;38541;48.130;8.378;2022-12-13T01:14:22;91733.69;;;-14.38;65.65
52249;BME280;38541;48.130;8.378;2022-12-13T01:16:48;91727.06;;;-14.39;65.15
52249;BME280;38541;48.130;8.378;2022-12-13T01:19:15;91728.56;;;-14.46;64.62
52249;BME280;38541;48.130;8.378;2022-12-13T01:21:42;91729.75;;;-14.50;63.91
52249;BME280;38541;48.130;8.378;2022-12-13T01:24:09;91732.16;;;-14.49;64.42
52249;BME280;38541;48.130;8.378;2022-12-13T01:26:35;91722.44;;;-14.43;64.93
52249;BME280;38541;48.130;8.378;2022-12-13T01:29:02;91723.91;;;-14.41;64.87
52249;BME280;38541;48.130;8.378;2022-12-13T01:31:31;91726.00;;;-14.36;65.76
52249;BME280;38541;48.130;8.378;2022-12-13T01:33:58;91716.69;;;-14.36;65.99
52249;BME280;38541;48.130;8.378;2022-12-13T01:36:24;91717.09;;;-14.30;65.89
52249;BME280;38541;48.130;8.378;2022-12-13T01:38:54;91715.78;;;-14.35;65.16
52249;BME280;38541;48.130;8.378;2022-12-13T01:41:25;91720.72;;;-14.43;64.48
52249;BME280;38541;48.130;8.378;2022-12-13T01:43:56;91726.53;;;-14.42;64.57
52249;BME280;38541;48.130;8.378;2022-12-13T01:46:22;91721.13;;;-14.48;64.06
52249;BME280;38541;48.130;8.378;2022-12-13T01:49:06;91726.44;;;-14.51;64.24
52249;BME280;38541;48.130;8.378;2022-12-13T01:51:52;91727.13;;;-14.58;64.01
52249;BME280;38541;48.130;8.378;2022-12-13T01:54:23;91724.22;;;-14.64;63.79
52249;BME280;38541;48.130;8.378;2022-12-13T01:57:01;91727.41;;;-14.62;64.46
52249;BME280;38541;48.130;8.378;2022-12-13T01:59:30;91719.94;;;-14.53;64.57
52249;BME280;38541;48.130;8.378;2022-12-13T02:01:57;91728.72;;;-14.57;64.60
52249;BME280;38541;48.130;8.378;2022-12-13T02:04:36;91723.31;;;-14.63;64.58
52249;BME280;38541;48.130;8.378;2022-12-13T02:07:44;91719.47;;;-14.67;64.23
52249;BME280;38541;48.130;8.378;2022-12-13T02:10:12;91713.13;;;-14.71;63.85
52249;BME280;38541;48.130;8.378;2022-12-13T02:12:41;91721.78;;;-14.73;63.98
52249;BME280;38541;48.130;8.378;2022-12-13T02:15:18;91713.13;;;-14.71;64.41
52249;BME280;38541;48.130;8.378;2022-12-13T02:34:35;91704.91;;;-14.73;64.14
52249;BME280;38541;48.130;8.378;2022-12-13T02:40:21;91698.69;;;-14.88;64.16
52249;BME280;38541;48.130;8.378;2022-12-13T02:45:40;91696.19;;;-14.88;64.30
52249;BME280;38541;48.130;8.378;2022-12-13T02:48:10;91695.69;;;-14.92;64.18
52249;BME280;38541;48.130;8.378;2022-12-13T02:50:39;91687.47;;;-14.94;64.18
52249;BME280;38541;48.130;8.378;2022-12-13T02:53:08;91697.00;;;-14.88;65.08
52249;BME280;38541;48.130;8.378;2022-12-13T02:55:37;91691.25;;;-14.80;65.71
52249;BME280;38541;48.130;8.378;2022-12-13T02:58:04;91696.84;;;-14.77;65.83
52249;BME280;38541;48.130;8.378;2022-12-13T03:00:55;91682.88;;;-14.71;65.65
52249;BME280;38541;48.130;8.378;2022-12-13T03:03:38;91680.72;;;-14.66;66.27
52249;BME280;38541;48.130;8.378;2022-12-13T03:18:05;91672.56;;;-14.87;64.43
52249;BME280;38541;48.130;8.378;2022-12-13T03:20:56;91665.94;;;-14.88;64.15
52249;BME280;38541;48.130;8.378;2022-12-13T03:23:23;91666.75;;;-14.88;64.74
52249;BME280;38541;48.130;8.378;2022-12-13T03:25:55;91668.22;;;-14.85;64.81
52249;BME280;38541;48.130;8.378;2022-12-13T03:28:23;91664.75;;;-14.84;64.73
52249;BME280;38541;48.130;8.378;2022-12-13T03:30:50;91660.41;;;-14.92;64.09
52249;BME280;38541;48.130;8.378;2022-12-13T03:33:16;91661.59;;;-14.96;64.14
52249;BME280;38541;48.130;8.378;2022-12-13T03:35:43;91664.34;;;-14.89;64.44
52249;BME280;38541;48.130;8.378;2022-12-13T03:38:15;91659.59;;;-14.93;64.74
52249;BME280;38541;48.130;8.378;2022-12-13T03:40:50;91665.28;;;-14.91;64.84
52249;BME280;38541;48.130;8.378;2022-12-13T03:43:17;91673.66;;;-14.90;64.61
52249;BME280;38541;48.130;8.378;2022-12-13T03:45:51;91671.13;;;-14.90;64.63
52249;BME280;38541;48.130;8.378;2022-12-13T03:48:19;91668.88;;;-14.93;64.70
52249;BME280;38541;48.130;8.378;2022-12-13T03:50:49;91664.78;;;-14.94;64.63
52249;BME280;38541;48.130;8.378;2022-12-13T03:53:15;91670.47;;;-14.92;65.20
52249;BME280;38541;48.130;8.378;2022-12-13T03:55:59;91652.97;;;-14.94;64.98
52249;BME280;38541;48.130;8.378;2022-12-13T03:58:27;91652.84;;;-14.92;65.20
52249;BME280;38541;48.130;8.378;2022-12-13T04:01:03;91654.28;;;-14.89;65.35
52249;BME280;38541;48.130;8.378;2022-12-13T04:03:29;91649.22;;;-14.89;65.14
52249;BME280;38541;48.130;8.378;2022-12-13T04:05:56;91646.34;;;-14.95;64.85
52249;BME280;38541;48.130;8.378;2022-12-13T04:08:22;91647.41;;;-14.97;64.73
52249;BME280;38541;48.130;8.378;2022-12-13T04:10:49;91643.16;;;-14.97;64.97
52249;BME280;38541;48.130;8.378;2022-12-13T04:13:15;91642.22;;;-14.96;64.63
52249;BME280;38541;48.130;8.378;2022-12-13T04:16:01;91642.88;;;-14.94;65.18
52249;BME280;38541;48.130;8.378;2022-12-13T04:18:28;91641.28;;;-14.95;65.16
52249;BME280;38541;48.130;8.378;2022-12-13T04:20:54;91637.19;;;-14.96;65.30
52249;BME280;38541;48.130;8.378;2022-12-13T04:23:22;91637.56;;;-14.91;65.84
52249;BME280;38541;48.130;8.378;2022-12-13T04:25:49;91635.03;;;-14.91;65.27
52249;BME280;38541;48.130;8.378;2022-12-13T04:28:15;91634.13;;;-14.89;65.95
52249;BME280;38541;48.130;8.378;2022-12-13T04:30:49;91634.38;;;-14.83;66.82
52249;BME280;38541;48.130;8.378;2022-12-13T04:33:18;91637.28;;;-14.78;66.90
52249;BME280;38541;48.130;8.378;2022-12-13T04:35:47;91640.63;;;-14.87;65.87
52249;BME280;38541;48.130;8.378;2022-12-13T04:38:13;91640.50;;;-14.85;66.33
52249;BME280;38541;48.130;8.378;2022-12-13T04:40:40;91644.16;;;-14.80;66.84
52249;BME280;38541;48.130;8.378;2022-12-13T04:43:06;91647.09;;;-14.74;67.36
52249;BME280;38541;48.130;8.378;2022-12-13T04:45:33;91642.53;;;-14.71;67.60
52249;BME280;38541;48.130;8.378;2022-12-13T04:47:59;91642.16;;;-14.76;66.95
52249;BME280;38541;48.130;8.378;2022-12-13T04:50:25;91641.50;;;-14.78;66.80
52249;BME280;38541;48.130;8.378;2022-12-13T04:52:52;91644.72;;;-14.86;66.37
52249;BME280;38541;48.130;8.378;2022-12-13T04:55:18;91632.94;;;-14.85;66.35
52249;BME280;38541;48.130;8.378;2022-12-13T04:57:45;91640.72;;;-14.79;67.17
52249;BME280;38541;48.130;8.378;2022-12-13T05:00:12;91634.09;;;-14.80;67.06
52249;BME280;38541;48.130;8.378;2022-12-13T05:02:39;91632.78;;;-14.84;66.57
52249;BME280;38541;48.130;8.378;2022-12-13T05:05:08;91636.75;;;-14.81;66.59
52249;BME280;38541;48.130;8.378;2022-12-13T05:07:35;91635.25;;;-14.74;66.89
52249;BME280;38541;48.130;8.378;2022-12-13T05:10:09;91637.00;;;-14.74;66.46
52249;BME280;38541;48.130;8.378;2022-12-13T05:12:35;91630.13;;;-14.82;66.81
52249;BME280;38541;48.130;8.378;2022-12-13T05:15:02;91628.25;;;-14.80;66.71
52249;BME280;38541;48.130;8.378;2022-12-13T05:17:28;91628.25;;;-14.80;66.41
52249;BME280;38541;48.130;8.378;2022-12-13T05:19:55;91626.97;;;-14.84;66.26
52249;BME280;38541;48.130;8.378;2022-12-13T05:22:22;91626.69;;;-14.81;67.03
52249;BME280;38541;48.130;8.378;2022-12-13T05:24:48;91619.75;;;-14.79;67.38
52249;BME280;38541;48.130;8.378;2022-12-13T05:27:15;91611.66;;;-14.73;68.32
52249;BME280;38541;48.130;8.378;2022-12-13T05:29:55;91612.09;;;-14.78;67.40
52249;BME280;38541;48.130;8.378;2022-12-13T05:32:36;91612.56;;;-14.74;67.28
52249;BME280;38541;48.130;8.378;2022-12-13T05:35:14;91612.09;;;-14.87;66.55
52249;BME280;38541;48.130;8.378;2022-12-13T05:37:52;91611.56;;;-14.81;67.45
52249;BME280;38541;48.130;8.378;2022-12-13T05:40:25;91612.84;;;-14.77;67.05
52249;BME280;38541;48.130;8.378;2022-12-13T05:42:52;91608.38;;;-14.83;67.02
52249;BME280;38541;48.130;8.378;2022-12-13T05:45:28;91604.00;;;-14.81;67.41
52249;BME280;38541;48.130;8.378;2022-12-13T05:47:54;91602.78;;;-14.77;67.46
52249;BME280;38541;48.130;8.378;2022-12-13T05:50:21;91604.13;;;-14.83;66.69
52249;BME280;38541;48.130;8.378;2022-12-13T05:52:48;91602.00;;;-14.87;67.09
52249;BME280;38541;48.130;8.378;2022-12-13T05:55:15;91608.38;;;-14.83;67.59
52249;BME280;38541;48.130;8.378;2022-12-13T05:57:42;91609.16;;;-14.83;67.02
52249;BME280;38541;48.130;8.378;2022-12-13T06:00:28;91614.59;;;-14.78;67.11
52249;BME280;38541;48.130;8.378;2022-12-13T06:02:57;91613.13;;;-14.80;67.34
52249;BME280;38541;48.130;8.378;2022-12-13T06:05:27;91612.28;;;-14.71;68.26
52249;BME280;38541;48.130;8.378;2022-12-13T06:07:53;91615.44;;;-14.69;68.21
52249;BME280;38541;48.130;8.378;2022-12-13T06:10:23;91614.66;;;-14.69;67.99
52249;BME280;38541;48.130;8.378;2022-12-13T06:12:49;91614.75;;;-14.61;68.03
52249;BME280;38541;48.130;8.378;2022-12-13T06:15:16;91620.03;;;-14.54;67.88
52249;BME280;38541;48.130;8.378;2022-12-13T06:17:48;91617.78;;;-14.57;68.13
52249;BME280;38541;48.130;8.378;2022-12-13T06:20:14;91609.28;;;-14.56;67.59
52249;BME280;38541;48.130;8.378;2022-12-13T06:22:52;91617.66;;;-14.56;67.59
52249;BME280;38541;48.130;8.378;2022-12-13T06:25:19;91614.50;;;-14.58;67.71
52249;BME280;38541;48.130;8.378;2022-12-13T06:27:57;91613.75;;;-14.50;67.96
52249;BME280;38541;48.130;8.378;2022-12-13T06:30:27;91617.63;;;-14.46;68.11
52249;BME280;38541;48.130;8.378;2022-12-13T06:32:54;91609.53;;;-14.50;67.31
52249;BME280;38541;48.130;8.378;2022-12-13T06:35:21;91609.00;;;-14.53;67.26
52249;BME280;38541;48.130;8.378;2022-12-13T06:37:58;91614.69;;;-14.51;66.91
52249;BME280;38541;48.130;8.378;2022-12-13T06:40:30;91618.31;;;-14.54;66.39
52249;BME280;38541;48.130;8.378;2022-12-13T06:42:57;91633.19;;;-14.60;66.51
52249;BME280;38541;48.130;8.378;2022-12-13T06:45:24;91622.53;;;-14.54;66.79
52249;BME280;38541;48.130;8.378;2022-12-13T06:47:51;91625.06;;;-14.54;66.89
52249;BME280;38541;48.130;8.378;2022-12-13T06:50:18;91621.91;;;-14.56;67.76
52249;BME280;38541;48.130;8.378;2022-12-13T06:52:45;91628.88;;;-14.50;68.67
52249;BME280;38541;48.130;8.378;2022-12-13T06:55:12;91627.41;;;-14.43;68.35
52249;BME280;38541;48.130;8.378;2022-12-13T06:57:39;91625.81;;;-14.44;68.19
52249;BME280;38541;48.130;8.378;2022-12-13T07:00:06;91631.25;;;-14.39;68.19
52249;BME280;38541;48.130;8.378;2022-12-13T07:02:33;91631.25;;;-14.39;67.88
52249;BME280;38541;48.130;8.378;2022-12-13T07:05:00;91628.59;;;-14.37;68.16
52249;BME280;38541;48.130;8.378;2022-12-13T07:07:26;91636.66;;;-14.34;67.90
52249;BME280;38541;48.130;8.378;2022-12-13T07:09:53;91638.50;;;-14.36;67.46
52249;BME280;38541;48.130;8.378;2022-12-13T07:12:20;91635.63;;;-14.41;67.75
52249;BME280;38541;48.130;8.378;2022-12-13T07:14:46;91636.38;;;-14.30;68.32
52249;BME280;38541;48.130;8.378;2022-12-13T07:17:13;91642.09;;;-14.28;67.42
52249;BME280;38541;48.130;8.378;2022-12-13T07:20:03;91642.50;;;-14.33;67.08
52249;BME280;38541;48.130;8.378;2022-12-13T07:22:33;91647.78;;;-14.26;67.09
52249;BME280;38541;48.130;8.378;2022-12-13T07:25:05;91645.75;;;-14.23;67.07
52249;BME280;38541;48.130;8.378;2022-12-13T07:28:03;91641.50;;;-14.22;67.36
52249;BME280;38541;48.130;8.378;2022-12-13T07:30:38;91645.19;;;-14.16;67.69
52249;BME280;38541;48.130;8.378;2022-12-13T07:33:07;91639.72;;;-14.12;67.62
52249;BME280;38541;48.130;8.378;2022-12-13T07:35:34;91644.50;;;-14.09;67.54
52249;BME280;38541;48.130;8.378;2022-12-13T07:38:05;91649.63;;;-14.00;68.05
52249;BME280;38541;48.130;8.378;2022-12-13T07:40:33;91642.78;;;-13.90;68.68
52249;BME280;38541;48.130;8.378;2022-12-13T07:43:00;91651.38;;;-13.83;68.30
52249;BME280;38541;48.130;8.378;2022-12-13T07:45:26;91639.09;;;-13.78;68.48
52249;BME280;38541;48.130;8.378;2022-12-13T07:47:53;91638.25;;;-13.68;67.98
52249;BME280;38541;48.130;8.378;2022-12-13T07:50:20;91640.91;;;-13.70;68.04
52249;BME280;38541;48.130;8.378;2022-12-13T07:52:50;91638.59;;;-13.63;68.53
52249;BME280;38541;48.130;8.378;2022-12-13T07:55:17;91640.53;;;-13.57;68.23
52249;BME280;38541;48.130;8.378;2022-12-13T07:57:48;91641.91;;;-13.44;68.48
52249;BME280;38541;48.130;8.378;2022-12-13T08:00:15;91639.91;;;-13.33;68.75
52249;BME280;38541;48.130;8.378;2022-12-13T08:02:41;91646.34;;;-13.20;69.25
52249;BME280;38541;48.130;8.378;2022-12-13T08:05:08;91644.38;;;-13.08;68.92
52249;BME280;38541;48.130;8.378;2022-12-13T08:07:52;91640.19;;;-12.91;69.02
52249;BME280;38541;48.130;8.378;2022-12-13T08:10:19;91644.88;;;-12.78;68.97
52249;BME280;38541;48.130;8.378;2022-12-13T08:12:46;91646.19;;;-12.66;68.78
52249;BME280;38541;48.130;8.378;2022-12-13T08:15:12;91655.75;;;-12.51;68.83
52249;BME280;38541;48.130;8.378;2022-12-13T08:17:39;91650.88;;;-12.44;68.05
52249;BME280;38541;48.130;8.378;2022-12-13T08:20:06;91659.44;;;-12.37;68.12
52249;BME280;38541;48.130;8.378;2022-12-13T08:22:33;91659.50;;;-12.29;68.31
52249;BME280;38541;48.130;8.378;2022-12-13T08:25:02;91660.97;;;-12.18;68.47
52249;BME280;38541;48.130;8.378;2022-12-13T08:27:28;91662.44;;;-12.07;68.90
52249;BME280;38541;48.130;8.378;2022-12-13T08:29:55;91663.41;;;-11.92;68.41
52249;BME280;38541;48.130;8.378;2022-12-13T08:32:22;91660.44;;;-11.79;68.31
52249;BME280;38541;48.130;8.378;2022-12-13T08:34:49;91659.47;;;-11.69;68.35
52249;BME280;38541;48.130;8.378;2022-12-13T08:37:15;91658.25;;;-11.57;68.13
52249;BME280;38541;48.130;8.378;2022-12-13T08:39:42;91658.59;;;-11.43;68.34
52249;BME280;38541;48.130;8.378;2022-12-13T08:42:15;91647.34;;;-11.33;67.95
52249;BME280;38541;48.130;8.378;2022-12-13T08:44:50;91652.41;;;-11.24;67.76
52249;BME280;38541;48.130;8.378;2022-12-13T08:47:19;91648.75;;;-11.13;67.81
52249;BME280;38541;48.130;8.378;2022-12-13T08:49:57;91640.53;;;-10.99;67.93
52249;BME280;38541;48.130;8.378;2022-12-13T08:52:31;91640.50;;;-10.82;67.79
52249;BME280;38541;48.130;8.378;2022-12-13T08:55:12;91640.47;;;-10.66;68.05
52249;BME280;38541;48.130;8.378;2022-12-13T08:57:39;91643.94;;;-10.50;67.50
52249;BME280;38541;48.130;8.378;2022-12-13T09:00:09;91639.44;;;-10.40;67.44
52249;BME280;38541;48.130;8.378;2022-12-13T09:02:37;91640.66;;;-10.27;67.57
52249;BME280;38541;48.130;8.378;2022-12-13T09:05:05;91640.28;;;-10.16;67.54
52249;BME280;38541;48.130;8.378;2022-12-13T09:07:34;91648.81;;;-10.00;67.33
52249;BME280;38541;48.130;8.378;2022-12-13T09:10:02;91652.09;;;-9.92;66.66
52249;BME280;38541;48.130;8.378;2022-12-13T09:12:49;91654.63;;;-9.83;67.03
52249;BME280;38541;48.130;8.378;2022-12-13T09:15:16;91654.63;;;-9.83;66.90
52249;BME280;38541;48.130;8.378;2022-12-13T09:17:48;91651.97;;;-9.67;66.70
52249;BME280;38541;48.130;8.378;2022-12-13T09:20:18;91648.91;;;-9.54;66.84
52249;BME280;38541;48.130;8.378;2022-12-13T09:22:55;91647.84;;;-9.36;66.86
52249;BME280;38541;48.130;8.378;2022-12-13T09:25:28;91650.25;;;-9.20;66.07
52249;BME280;38541;48.130;8.378;2022-12-13T09:28:04;91643.81;;;-9.07;66.50
52249;BME280;38541;48.130;8.378;2022-12-13T09:30:31;91645.50;;;-8.99;66.56
52249;BME280;38541;48.130;8.378;2022-12-13T09:32:58;91646.25;;;-8.91;66.38
52249;BME280;38541;48.130;8.378;2022-12-13T09:35:44;91645.28;;;-8.75;66.59
52249;BME280;38541;48.130;8.378;2022-12-13T09:38:10;91651.22;;;-8.59;66.61
52249;BME280;38541;48.130;8.378;2022-12-13T09:40:38;91642.69;;;-8.51;66.32
52249;BME280;38541;48.130;8.378;2022-12-13T09:43:05;91647.06;;;-8.45;66.29
52249;BME280;38541;48.130;8.378;2022-12-13T09:45:48;91641.72;;;-8.35;65.82
52249;BME280;38541;48.130;8.378;2022-12-13T09:48:17;91650.97;;;-8.19;66.20
52249;BME280;38541;48.130;8.378;2022-12-13T09:50:49;91646.00;;;-8.06;66.28
52249;BME280;38541;48.130;8.378;2022-12-13T09:53:35;91644.44;;;-7.92;66.08
52249;BME280;38541;48.130;8.378;2022-12-13T09:56:02;91637.56;;;-7.76;65.79
52249;BME280;38541;48.130;8.378;2022-12-13T09:58:36;91639.88;;;-7.60;65.85
52249;BME280;38541;48.130;8.378;2022-12-13T10:01:04;91626.22;;;-7.37;65.50
52249;BME280;38541;48.130;8.378;2022-12-13T10:03:30;91624.66;;;-7.31;65.10
52249;BME280;38541;48.130;8.378;2022-12-13T10:05:57;91621.81;;;-7.21;65.32
52249;BME280;38541;48.130;8.378;2022-12-13T10:08:34;91617.28;;;-7.04;65.50
52249;BME280;38541;48.130;8.378;2022-12-13T10:11:02;91621.25;;;-6.95;65.98
52249;BME280;38541;48.130;8.378;2022-12-13T10:13:44;91611.66;;;-6.71;65.97
52249;BME280;38541;48.130;8.378;2022-12-13T10:19:13;91616.47;;;-6.19;66.08
52249;BME280;38541;48.130;8.378;2022-12-13T10:21:56;91609.69;;;-5.92;65.59
52249;BME280;38541;48.130;8.378;2022-12-13T10:24:30;91614.06;;;-5.79;65.47
52249;BME280;38541;48.130;8.378;2022-12-13T10:27:15;91606.84;;;-5.68;66.17
52249;BME280;38541;48.130;8.378;2022-12-13T10:30:14;91607.88;;;-5.56;65.26
52249;BME280;38541;48.130;8.378;2022-12-13T10:32:54;91608.66;;;-5.49;65.58
52249;BME280;38541;48.130;8.378;2022-12-13T10:35:22;91602.97;;;-5.44;66.27
52249;BME280;38541;48.130;8.378;2022-12-13T10:37:50;91600.41;;;-5.44;65.10
52249;BME280;38541;48.130;8.378;2022-12-13T10:40:32;91599.44;;;-5.43;65.38
52249;BME280;38541;48.130;8.378;2022-12-13T10:43:15;91600.66;;;-5.25;64.94
52249;BME280;38541;48.130;8.378;2022-12-13T10:48:36;91589.44;;;-5.04;63.31
52249;BME280;38541;48.130;8.378;2022-12-13T10:51:12;91601.66;;;-4.93;63.87
52249;BME280;38541;48.130;8.378;2022-12-13T10:53:45;91598.13;;;-4.78;64.11
52249;BME280;38541;48.130;8.378;2022-12-13T10:56:16;91584.34;;;-4.64;63.79
52249;BME280;38541;48.130;8.378;2022-12-13T10:58:52;91585.28;;;-4.51;62.79
52249;BME280;38541;48.130;8.378;2022-12-13T11:01:42;91583.88;;;-4.34;62.77
52249;BME280;38541;48.130;8.378;2022-12-13T11:06:52;91579.09;;;-4.10;62.12
52249;BME280;38541;48.130;8.378;2022-12-13T11:11:56;91575.41;;;-3.68;61.29
52249;BME280;38541;48.130;8.378;2022-12-13T11:14:33;91574.91;;;-3.45;61.17
52249;BME280;38541;48.130;8.378;2022-12-13T11:17:15;91572.72;;;-3.09;59.89
52249;BME280;38541;48.130;8.378;2022-12-13T11:19:50;91567.59;;;-3.09;60.72
52249;BME280;38541;48.130;8.378;2022-12-13T11:25:07;91568.66;;;-3.24;59.19
52249;BME280;38541;48.130;8.378;2022-12-13T11:27:57;91567.28;;;-3.26;59.78
52249;BME280;38541;48.130;8.378;2022-12-13T11:30:32;91566.38;;;-3.07;59.34
52249;BME280;38541;48.130;8.378;2022-12-13T11:41:09;91566.63;;;-2.39;58.30
52249;BME280;38541;48.130;8.378;2022-12-13T11:44:01;91567.38;;;-2.32;58.11
52249;BME280;38541;48.130;8.378;2022-12-13T11:46:48;91562.16;;;-2.25;57.97
52249;BME280;38541;48.130;8.378;2022-12-13T11:49:17;91560.72;;;-2.21;57.47
52249;BME280;38541;48.130;8.378;2022-12-13T11:52:03;91552.22;;;-2.03;57.24
52249;BME280;38541;48.130;8.378;2022-12-13T11:54:42;91544.44;;;-1.96;57.78
52249;BME280;38541;48.130;8.378;2022-12-13T11:57:23;91542.78;;;-1.72;57.14
52249;BME280;38541;48.130;8.378;2022-12-13T11:59:59;91548.03;;;-1.66;55.64
52249;BME280;38541;48.130;8.378;2022-12-13T12:02:34;91546.91;;;-1.70;55.61
52249;BME280;38541;48.130;8.378;2022-12-13T12:05:05;91542.13;;;-1.67;55.96
52249;BME280;38541;48.130;8.378;2022-12-13T12:07:43;91544.75;;;-1.55;55.54
52249;BME280;38541;48.130;8.378;2022-12-13T12:10:38;91540.69;;;-1.63;55.94
52249;BME280;38541;48.130;8.378;2022-12-13T12:13:34;91547.78;;;-1.77;56.09
52249;BME280;38541;48.130;8.378;2022-12-13T12:16:29;91544.66;;;-1.79;56.21
52249;BME280;38541;48.130;8.378;2022-12-13T12:18:59;91540.63;;;-1.75;56.16
52249;BME280;38541;48.130;8.378;2022-12-13T12:27:05;91542.00;;;-0.99;55.62
52249;BME280;38541;48.130;8.378;2022-12-13T12:30:00;91538.78;;;-0.94;54.83
52249;BME280;38541;48.130;8.378;2022-12-13T12:35:43;91531.97;;;-0.65;54.21
52249;BME280;38541;48.130;8.378;2022-12-13T12:43:43;91522.66;;;-0.42;52.92
52249;BME280;38541;48.130;8.378;2022-12-13T12:51:46;91523.28;;;0.13;52.56
52249;BME280;38541;48.130;8.378;2022-12-13T12:57:20;91512.06;;;0.48;50.65
52249;BME280;38541;48.130;8.378;2022-12-13T13:00:02;91505.66;;;0.39;51.27
52249;BME280;38541;48.130;8.378;2022-12-13T13:02:44;91507.16;;;0.35;51.99
52249;BME280;38541;48.130;8.378;2022-12-13T13:10:56;91506.53;;;0.04;53.50
52249;BME280;38541;48.130;8.378;2022-12-13T13:13:33;91507.00;;;0.41;52.67
52249;BME280;38541;48.130;8.378;2022-12-13T13:16:02;91505.13;;;0.37;52.54
52249;BME280;38541;48.130;8.378;2022-12-13T13:18:53;91506.28;;;0.17;53.04
52249;BME280;38541;48.130;8.378;2022-12-13T13:26:43;91500.00;;;0.25;53.35
52249;BME280;38541;48.130;8.378;2022-12-13T13:32:23;91503.63;;;0.12;53.15
52249;BME280;38541;48.130;8.378;2022-12-13T13:38:03;91496.28;;;-0.20;53.19
52249;BME280;38541;48.130;8.378;2022-12-13T13:40:37;91499.47;;;0.11;53.33
52249;BME280;38541;48.130;8.378;2022-12-13T13:57:19;91526.06;;;0.11;52.10
52249;BME280;38541;48.130;8.378;2022-12-13T14:05:29;91520.81;;;0.06;51.95
52249;BME280;38541;48.130;8.378;2022-12-13T14:08:17;91514.91;;;-0.30;53.15
52249;BME280;38541;48.130;8.378;2022-12-13T14:11:11;91516.59;;;-0.60;52.99
52249;BME280;38541;48.130;8.378;2022-12-13T14:25:26;91516.59;;;-1.26;55.91
52249;BME280;38541;48.130;8.378;2022-12-13T14:28:11;91531.03;;;-1.67;56.48
52249;BME280;38541;48.130;8.378;2022-12-13T14:30:41;91532.34;;;-1.77;56.92
52249;BME280;38541;48.130;8.378;2022-12-13T14:33:24;91535.00;;;-1.83;57.91
52249;BME280;38541;48.130;8.378;2022-12-13T14:35:58;91526.75;;;-1.74;57.50
52249;BME280;38541;48.130;8.378;2022-12-13T14:38:27;91535.69;;;-1.95;57.33
52249;BME280;38541;48.130;8.378;2022-12-13T14:41:01;91527.22;;;-2.14;58.25
52249;BME280;38541;48.130;8.378;2022-12-13T14:43:30;91524.16;;;-2.23;58.21
52249;BME280;38541;48.130;8.378;2022-12-13T14:46:03;91519.34;;;-2.38;58.70
52249;BME280;38541;48.130;8.378;2022-12-13T14:48:35;91519.06;;;-2.48;58.60
52249;BME280;38541;48.130;8.378;2022-12-13T14:51:02;91525.63;;;-2.52;58.95
52249;BME280;38541;48.130;8.378;2022-12-13T14:53:37;91515.59;;;-2.61;59.11
52249;BME280;38541;48.130;8.378;2022-12-13T14:56:09;91516.31;;;-2.72;59.69
52249;BME280;38541;48.130;8.378;2022-12-13T14:59:01;91515.00;;;-2.81;60.08
52249;BME280;38541;48.130;8.378;2022-12-13T15:01:33;91509.81;;;-3.00;60.67
52249;BME280;38541;48.130;8.378;2022-12-13T15:04:26;91523.13;;;-3.10;60.88
52249;BME280;38541;48.130;8.378;2022-12-13T15:06:56;91522.00;;;-3.21;60.69
52249;BME280;38541;48.130;8.378;2022-12-13T15:09:24;91521.53;;;-3.36;61.34
52249;BME280;38541;48.130;8.378;2022-12-13T15:11:55;91529.63;;;-3.39;61.55
52249;BME280;38541;48.130;8.378;2022-12-13T15:14:45;91529.06;;;-3.41;61.70
52249;BME280;38541;48.130;8.378;2022-12-13T15:17:25;91530.47;;;-3.46;62.22
52249;BME280;38541;48.130;8.378;2022-12-13T15:19:57;91527.16;;;-3.53;61.39
52249;BME280;38541;48.130;8.378;2022-12-13T15:22:33;91523.69;;;-3.65;62.84
52249;BME280;38541;48.130;8.378;2022-12-13T15:25:00;91522.91;;;-3.73;62.28
52249;BME280;38541;48.130;8.378;2022-12-13T15:27:31;91524.91;;;-3.75;62.58